createdAt,value
2023-02-14T00:00:05.708Z,42.50
2023-02-14T00:02:32.470Z,39.15
2023-02-14T00:04:59.314Z,37.64
2023-02-14T00:07:26.100Z,36.80
2023-02-14T00:09:52.825Z,36.45
2023-02-14T00:12:19.580Z,36.09
2023-02-14T00:15:05.132Z,35.67
2023-02-14T00:17:31.900Z,35.58
2023-02-14T00:19:58.663Z,35.47
2023-02-14T00:22:25.398Z,35.46
2023-02-14T00:24:52.163Z,35.40
2023-02-14T00:27:18.969Z,34.93
2023-02-14T00:29:45.717Z,34.96
2023-02-14T00:32:12.589Z,34.98
2023-02-14T00:34:39.384Z,35.00
2023-02-14T00:37:06.146Z,34.97
2023-02-14T00:39:32.904Z,37.79
2023-02-14T00:41:59.658Z,39.28
2023-02-14T00:44:26.413Z,41.73
2023-02-14T00:46:53.215Z,38.56
2023-02-14T00:49:20.043Z,37.01
2023-02-14T00:51:46.808Z,36.48
2023-02-14T00:54:13.625Z,36.06
2023-02-14T00:56:40.399Z,35.70
2023-02-14T00:59:07.145Z,35.66
2023-02-14T01:01:33.926Z,35.41
2023-02-14T01:04:00.736Z,35.31
2023-02-14T01:06:27.514Z,35.37
2023-02-14T01:08:54.349Z,35.38
2023-02-14T01:11:21.111Z,34.88
2023-02-14T01:13:47.871Z,35.18
2023-02-14T01:16:14.732Z,34.88
2023-02-14T01:18:41.465Z,34.99
2023-02-14T01:21:08.201Z,34.88
2023-02-14T01:23:34.963Z,35.64
2023-02-14T01:26:01.757Z,38.62
2023-02-14T01:28:28.500Z,39.19
2023-02-14T01:30:55.307Z,40.04
2023-02-14T01:33:22.079Z,37.60
2023-02-14T01:35:48.823Z,37.01
2023-02-14T01:38:15.585Z,36.34
2023-02-14T01:40:42.324Z,36.37
2023-02-14T01:43:09.064Z,35.64
2023-02-14T01:45:35.848Z,35.53
2023-02-14T01:48:02.595Z,35.53
2023-02-14T01:50:29.461Z,35.33
2023-02-14T01:52:56.215Z,35.01
2023-02-14T01:55:22.996Z,35.19
2023-02-14T01:57:49.733Z,35.00
2023-02-14T02:00:35.274Z,34.83
2023-02-14T02:03:02.001Z,34.70
2023-02-14T02:05:28.747Z,34.63
2023-02-14T02:07:55.526Z,34.55
2023-02-14T02:10:22.270Z,34.13
2023-02-14T02:12:49.087Z,37.12
2023-02-14T02:15:15.840Z,39.27
2023-02-14T02:17:42.655Z,41.84
2023-02-14T02:20:09.463Z,37.97
2023-02-14T02:22:36.220Z,36.86
2023-02-14T02:25:03.002Z,36.39
2023-02-14T02:27:29.747Z,35.85
2023-02-14T02:29:56.532Z,35.67
2023-02-14T02:32:23.297Z,35.30
2023-02-14T02:34:50.104Z,35.32
2023-02-14T02:37:16.903Z,34.85
2023-02-14T02:39:43.639Z,34.87
2023-02-14T02:42:10.368Z,34.87
2023-02-14T02:44:37.162Z,34.76
2023-02-14T02:47:03.903Z,34.61
2023-02-14T02:49:49.387Z,34.49
2023-02-14T02:52:34.817Z,34.37
2023-02-14T02:55:01.591Z,34.21
2023-02-14T02:57:28.336Z,34.32
2023-02-14T02:59:55.063Z,35.06
2023-02-14T03:02:21.822Z,38.52
2023-02-14T03:04:54.738Z,39.61
2023-02-14T03:07:37.001Z,39.43
2023-02-14T03:10:03.763Z,37.16
2023-02-14T03:12:30.653Z,36.25
2023-02-14T03:14:57.435Z,35.78
2023-02-14T03:17:24.193Z,35.68
2023-02-14T03:20:09.729Z,35.18
2023-02-14T03:22:36.459Z,34.76
2023-02-14T03:25:03.193Z,34.84
2023-02-14T03:27:29.976Z,35.07
2023-02-14T03:29:58.351Z,34.71
2023-02-14T03:32:25.151Z,34.24
2023-02-14T03:34:51.904Z,34.50
2023-02-14T03:37:18.667Z,34.21
2023-02-14T03:39:45.398Z,34.32
2023-02-14T03:42:12.151Z,34.53
2023-02-14T03:44:38.942Z,34.42
2023-02-14T03:47:05.719Z,34.10
2023-02-14T03:49:32.487Z,34.59
2023-02-14T03:51:59.234Z,38.50
2023-02-14T03:54:25.974Z,39.60
2023-02-14T03:56:52.727Z,39.36
2023-02-14T03:59:19.487Z,36.55
2023-02-14T04:01:46.393Z,36.45
2023-02-14T04:04:13.210Z,35.46
2023-02-14T04:06:39.950Z,35.42
2023-02-14T04:09:06.715Z,35.02
2023-02-14T04:11:35.040Z,34.94
2023-02-14T04:14:01.818Z,34.96
2023-02-14T04:16:28.693Z,34.56
2023-02-14T04:19:14.017Z,34.79
2023-02-14T04:21:40.748Z,34.57
2023-02-14T04:24:07.476Z,34.34
2023-02-14T04:26:34.240Z,34.52
2023-02-14T04:29:01.031Z,34.36
2023-02-14T04:31:27.940Z,34.22
2023-02-14T04:33:54.901Z,34.14
2023-02-14T04:36:21.679Z,34.04
2023-02-14T04:38:48.449Z,35.61
2023-02-14T04:41:15.195Z,39.16
2023-02-14T04:43:41.955Z,40.59
2023-02-14T04:46:08.873Z,37.61
2023-02-14T04:48:35.667Z,36.34
2023-02-14T04:51:02.939Z,35.57
2023-02-14T04:53:29.681Z,35.40
2023-02-14T04:55:56.438Z,34.86
2023-02-14T04:58:23.333Z,34.68
2023-02-14T05:00:50.118Z,34.73
2023-02-14T05:03:16.898Z,34.69
2023-02-14T05:05:43.647Z,34.39
2023-02-14T05:08:10.439Z,34.28
2023-02-14T05:10:37.198Z,33.98
2023-02-14T05:13:03.938Z,34.21
2023-02-14T05:15:30.678Z,34.15
2023-02-14T05:18:01.652Z,33.99
2023-02-14T05:20:28.436Z,33.96
2023-02-14T05:22:55.164Z,34.03
2023-02-14T05:25:21.937Z,36.85
2023-02-14T05:27:48.703Z,38.36
2023-02-14T05:30:15.506Z,40.15
2023-02-14T05:32:42.343Z,37.27
2023-02-14T05:35:09.096Z,35.94
2023-02-14T05:37:35.827Z,35.26
2023-02-14T05:40:02.664Z,34.78
2023-02-14T05:42:29.400Z,34.65
2023-02-14T05:44:56.125Z,34.55
2023-02-14T05:47:24.010Z,34.59
2023-02-14T05:49:50.794Z,34.46
2023-02-14T05:52:17.536Z,34.27
2023-02-14T05:54:44.286Z,34.41
2023-02-14T05:57:11.028Z,34.13
2023-02-14T05:59:37.764Z,34.05
2023-02-14T06:02:04.545Z,34.10
2023-02-14T06:04:31.429Z,33.92
2023-02-14T06:06:58.180Z,33.98
2023-02-14T06:09:25.165Z,33.60
2023-02-14T06:11:53.752Z,34.02
2023-02-14T06:14:21.987Z,36.86
2023-02-14T06:16:48.782Z,38.03
2023-02-14T06:19:15.534Z,39.76
2023-02-14T06:21:42.270Z,36.92
2023-02-14T06:24:09.027Z,36.02
2023-02-14T06:26:36.048Z,35.33
2023-02-14T06:29:02.783Z,34.99
2023-02-14T06:31:29.591Z,34.80
2023-02-14T06:33:56.389Z,34.63
2023-02-14T06:36:23.813Z,34.38
2023-02-14T06:38:50.640Z,34.30
2023-02-14T06:41:17.489Z,34.09
2023-02-14T06:43:44.234Z,33.83
2023-02-14T06:46:11.081Z,33.96
2023-02-14T06:48:37.898Z,33.98
2023-02-14T06:51:04.634Z,33.92
2023-02-14T06:53:31.386Z,33.83
2023-02-14T06:55:58.122Z,35.47
2023-02-14T06:58:24.886Z,38.23
2023-02-14T07:00:51.641Z,41.04
2023-02-14T07:03:18.373Z,37.84
2023-02-14T07:05:45.208Z,36.65
2023-02-14T07:08:12.022Z,35.92
2023-02-14T07:10:38.756Z,35.25
2023-02-14T07:13:05.502Z,35.08
2023-02-14T07:15:32.288Z,34.96
2023-02-14T07:17:59.080Z,34.24
2023-02-14T07:20:25.825Z,34.33
2023-02-14T07:22:52.654Z,34.45
2023-02-14T07:25:19.401Z,34.01
2023-02-14T07:27:46.212Z,34.11
2023-02-14T07:30:13.009Z,33.92
2023-02-14T07:32:39.785Z,34.08
2023-02-14T07:35:06.516Z,33.72
2023-02-14T07:37:33.304Z,33.74
2023-02-14T07:40:00.057Z,34.45
2023-02-14T07:42:26.898Z,36.85
2023-02-14T07:44:53.648Z,38.57
2023-02-14T07:47:20.382Z,38.70
2023-02-14T07:49:47.116Z,36.56
2023-02-14T07:52:13.878Z,35.52
2023-02-14T07:54:40.619Z,35.17
2023-02-14T07:57:07.387Z,35.04
2023-02-14T07:59:34.145Z,35.07
2023-02-14T08:02:00.956Z,34.51
2023-02-14T08:04:27.755Z,34.75
2023-02-14T08:06:54.571Z,34.43
2023-02-14T08:09:24.581Z,34.57
2023-02-14T08:12:10.322Z,34.18
2023-02-14T08:14:37.107Z,34.22
2023-02-14T08:17:03.911Z,33.85
2023-02-14T08:19:30.699Z,33.86
2023-02-14T08:21:57.464Z,35.05
2023-02-14T08:24:24.208Z,38.10
2023-02-14T08:26:51.032Z,39.33
2023-02-14T08:29:17.766Z,38.74
2023-02-14T08:31:45.186Z,36.36
2023-02-14T08:34:11.954Z,35.95
2023-02-14T08:36:38.710Z,35.75
2023-02-14T08:39:05.463Z,35.20
2023-02-14T08:41:32.288Z,34.98
2023-02-14T08:43:59.214Z,34.98
2023-02-14T08:46:26.118Z,34.59
2023-02-14T08:48:54.214Z,34.58
2023-02-14T08:51:22.592Z,34.47
2023-02-14T08:53:49.338Z,34.10
2023-02-14T08:56:16.147Z,34.36
2023-02-14T08:58:42.911Z,33.77
2023-02-14T09:01:09.794Z,34.15
2023-02-14T09:03:38.330Z,37.42
2023-02-14T09:06:05.283Z,39.02
2023-02-14T09:08:34.806Z,40.96
2023-02-14T09:11:01.930Z,37.38
2023-02-14T09:13:30.538Z,36.23
2023-02-14T09:15:57.314Z,35.15
2023-02-14T09:18:24.117Z,35.36
2023-02-14T09:20:50.856Z,34.91
2023-02-14T09:23:17.686Z,34.85
2023-02-14T09:25:44.456Z,34.54
2023-02-14T09:28:11.198Z,34.43
2023-02-14T09:30:38.001Z,34.29
2023-02-14T09:33:05.334Z,34.20
2023-02-14T09:35:50.808Z,34.50
2023-02-14T09:38:20.841Z,34.03
2023-02-14T09:40:48.613Z,34.11
2023-02-14T09:43:15.358Z,34.22
2023-02-14T09:45:43.558Z,34.63
2023-02-14T09:48:10.319Z,38.05
2023-02-14T09:50:37.042Z,38.91
2023-02-14T09:53:03.819Z,39.75
2023-02-14T09:55:30.628Z,37.17
2023-02-14T09:57:57.393Z,36.09
2023-02-14T10:00:24.172Z,35.25
2023-02-14T10:02:50.930Z,35.17
2023-02-14T10:05:17.650Z,34.94
2023-02-14T10:07:44.440Z,35.05
2023-02-14T10:10:11.174Z,34.37
2023-02-14T10:12:37.969Z,34.45
2023-02-14T10:15:04.764Z,34.32
2023-02-14T10:17:31.499Z,34.50
2023-02-14T10:19:58.303Z,34.45
2023-02-14T10:22:25.069Z,34.43
2023-02-14T10:24:51.802Z,34.34
2023-02-14T10:27:18.564Z,36.23
2023-02-14T10:29:45.303Z,39.62
2023-02-14T10:32:12.936Z,41.82
2023-02-14T10:34:39.713Z,38.38
2023-02-14T10:37:06.454Z,36.55
2023-02-14T10:39:33.175Z,35.56
2023-02-14T10:41:59.936Z,35.32
2023-02-14T10:44:26.734Z,35.32
2023-02-14T10:46:53.477Z,35.12
2023-02-14T10:49:20.207Z,34.69
2023-02-14T10:51:46.981Z,34.81
2023-02-14T10:54:13.721Z,34.49
2023-02-14T10:56:40.532Z,34.45
2023-02-14T10:59:07.282Z,34.52
2023-02-14T11:01:34.079Z,34.44
2023-02-14T11:04:04.050Z,34.19
2023-02-14T11:06:31.033Z,35.58
2023-02-14T11:08:57.804Z,38.10
2023-02-14T11:11:24.608Z,39.29
2023-02-14T11:13:51.358Z,39.31
2023-02-14T11:16:18.137Z,37.54
2023-02-14T11:18:44.895Z,36.62
2023-02-14T11:21:11.739Z,35.90
2023-02-14T11:23:38.490Z,35.48
2023-02-14T11:26:05.242Z,35.31
2023-02-14T11:28:32.048Z,34.93
2023-02-14T11:30:59.268Z,34.79
2023-02-14T11:33:26.354Z,34.88
2023-02-14T11:35:53.141Z,34.50
2023-02-14T11:38:19.909Z,34.47
2023-02-14T11:40:46.653Z,34.35
2023-02-14T11:43:14.774Z,34.44
2023-02-14T11:45:41.892Z,37.17
2023-02-14T11:48:09.977Z,39.04
2023-02-14T11:50:36.731Z,40.14
2023-02-14T11:53:03.507Z,38.95
2023-02-14T11:55:30.428Z,37.11
2023-02-14T11:57:57.174Z,36.39
2023-02-14T12:00:26.601Z,35.58
2023-02-14T12:02:53.352Z,35.59
2023-02-14T12:05:20.525Z,35.32
2023-02-14T12:07:47.305Z,35.02
2023-02-14T12:10:17.015Z,34.77
2023-02-14T12:12:43.789Z,34.95
2023-02-14T12:15:10.531Z,34.76
2023-02-14T12:17:37.434Z,34.67
2023-02-14T12:20:07.138Z,34.90
2023-02-14T12:22:34.341Z,34.66
2023-02-14T12:25:01.356Z,35.13
2023-02-14T12:27:28.142Z,38.84
2023-02-14T12:29:54.903Z,39.27
2023-02-14T12:32:21.723Z,40.75
2023-02-14T12:34:48.513Z,38.08
2023-02-14T12:37:15.243Z,37.15
2023-02-14T12:39:41.981Z,36.38
2023-02-14T12:42:08.743Z,36.02
2023-02-14T12:44:35.482Z,35.66
2023-02-14T12:47:02.379Z,35.49
2023-02-14T12:49:29.156Z,35.29
2023-02-14T12:51:55.918Z,35.34
2023-02-14T12:54:22.672Z,35.37
2023-02-14T12:56:49.466Z,35.21
2023-02-14T12:59:16.194Z,35.01
2023-02-14T13:01:42.999Z,34.79
2023-02-14T13:04:09.784Z,34.92
2023-02-14T13:06:36.523Z,36.62
2023-02-14T13:09:03.283Z,39.23
2023-02-14T13:11:30.078Z,40.41
2023-02-14T13:13:57.048Z,40.39
2023-02-14T13:16:23.886Z,37.67
2023-02-14T13:18:50.673Z,37.11
2023-02-14T13:21:17.548Z,36.39
2023-02-14T13:23:44.348Z,36.37
2023-02-14T13:26:11.260Z,36.01
2023-02-14T13:28:38.006Z,35.74
2023-02-14T13:31:05.088Z,35.38
2023-02-14T13:33:34.948Z,35.58
2023-02-14T13:36:02.377Z,35.21
2023-02-14T13:38:31.692Z,35.15
2023-02-14T13:40:58.823Z,35.14
2023-02-14T13:43:25.714Z,34.88
2023-02-14T13:45:52.558Z,37.92
2023-02-14T13:48:19.600Z,38.97
2023-02-14T13:50:46.358Z,41.08
2023-02-14T13:53:13.168Z,38.44
2023-02-14T13:55:39.991Z,37.44
2023-02-14T13:58:06.762Z,37.03
2023-02-14T14:00:33.560Z,36.61
2023-02-14T14:03:00.379Z,35.91
2023-02-14T14:05:27.161Z,36.08
2023-02-14T14:07:53.886Z,35.83
2023-02-14T14:10:20.634Z,35.30
2023-02-14T14:12:47.421Z,35.55
2023-02-14T14:15:14.820Z,35.54
2023-02-14T14:17:41.645Z,35.45
2023-02-14T14:20:08.405Z,35.43
2023-02-14T14:22:35.774Z,35.59
2023-02-14T14:25:02.649Z,39.02
2023-02-14T14:27:29.548Z,39.37
2023-02-14T14:29:56.416Z,40.96
2023-02-14T14:32:23.196Z,38.78
2023-02-14T14:34:50.672Z,37.28
2023-02-14T14:37:17.453Z,37.01
2023-02-14T14:39:44.402Z,36.72
2023-02-14T14:42:11.212Z,36.60
2023-02-14T14:44:38.045Z,36.41
2023-02-14T14:47:04.849Z,36.18
2023-02-14T14:49:31.613Z,35.95
2023-02-14T14:51:58.389Z,35.64
2023-02-14T14:54:27.365Z,35.84
2023-02-14T14:56:54.888Z,35.51
2023-02-14T14:59:22.336Z,35.49
2023-02-14T15:01:50.157Z,37.92
2023-02-14T15:04:16.991Z,39.19
2023-02-14T15:06:43.769Z,41.24
2023-02-14T15:09:10.518Z,39.82
2023-02-14T15:11:55.921Z,37.89
2023-02-14T15:14:22.674Z,37.00
2023-02-14T15:16:49.457Z,36.81
2023-02-14T15:19:17.056Z,36.21
2023-02-14T15:21:44.804Z,35.99
2023-02-14T15:24:11.670Z,36.21
2023-02-14T15:26:38.458Z,36.10
2023-02-14T15:29:05.209Z,35.55
2023-02-14T15:31:32.106Z,35.70
2023-02-14T15:33:59.879Z,35.80
2023-02-14T15:36:26.651Z,35.79
2023-02-14T15:38:53.391Z,38.22
2023-02-14T15:41:20.140Z,40.84
2023-02-14T15:43:46.891Z,42.76
2023-02-14T15:46:13.702Z,39.32
2023-02-14T15:48:40.444Z,38.24
2023-02-14T15:51:07.902Z,37.34
2023-02-14T15:53:34.693Z,36.82
2023-02-14T15:56:01.432Z,36.94
2023-02-14T15:58:28.181Z,36.66
2023-02-14T16:00:54.936Z,36.31
2023-02-14T16:03:21.666Z,36.01
2023-02-14T16:05:48.477Z,36.07
2023-02-14T16:08:15.213Z,35.81
2023-02-14T16:10:42.019Z,36.20
2023-02-14T16:13:09.505Z,35.88
2023-02-14T16:15:36.523Z,36.79
2023-02-14T16:18:08.219Z,39.81
2023-02-14T16:20:35.176Z,40.47
2023-02-14T16:23:01.912Z,41.55
2023-02-14T16:25:28.663Z,38.95
2023-02-14T16:27:55.435Z,38.07
2023-02-14T16:30:22.234Z,37.54
2023-02-14T16:32:49.989Z,37.06
2023-02-14T16:35:16.901Z,36.86
2023-02-14T16:37:43.693Z,36.54
2023-02-14T16:40:10.632Z,36.57
2023-02-14T16:42:37.879Z,36.28
2023-02-14T16:45:05.138Z,36.40
2023-02-14T16:47:31.917Z,36.32
2023-02-14T16:49:58.688Z,36.06
2023-02-14T16:52:25.451Z,36.02
2023-02-14T16:54:52.189Z,35.89
2023-02-14T16:57:18.982Z,37.42
2023-02-14T16:59:45.722Z,39.77
2023-02-14T17:02:13.864Z,42.12
2023-02-14T17:04:40.609Z,41.15
2023-02-14T17:07:07.463Z,39.18
2023-02-14T17:09:34.229Z,37.96
2023-02-14T17:12:01.078Z,37.63
2023-02-14T17:14:27.810Z,37.11
2023-02-14T17:16:54.561Z,36.95
2023-02-14T17:19:21.480Z,36.59
2023-02-14T17:21:48.520Z,36.46
2023-02-14T17:24:15.741Z,36.30
2023-02-14T17:26:42.493Z,36.16
2023-02-14T17:29:09.240Z,36.04
2023-02-14T17:31:36.122Z,36.34
2023-02-14T17:34:02.961Z,35.83
2023-02-14T17:36:29.723Z,35.69
2023-02-14T17:38:56.514Z,36.33
2023-02-14T17:41:23.290Z,39.64
2023-02-14T17:43:50.113Z,40.49
2023-02-14T17:46:18.451Z,41.91
2023-02-14T17:48:48.873Z,39.06
2023-02-14T17:51:15.676Z,38.09
2023-02-14T17:53:42.517Z,37.70
2023-02-14T17:56:09.326Z,37.19
2023-02-14T17:58:36.076Z,36.58
2023-02-14T18:01:02.833Z,36.78
2023-02-14T18:03:29.611Z,36.44
2023-02-14T18:05:56.357Z,36.43
2023-02-14T18:08:23.154Z,36.26
2023-02-14T18:10:49.916Z,36.29
2023-02-14T18:13:16.642Z,36.13
2023-02-14T18:15:43.374Z,36.07
2023-02-14T18:18:11.661Z,35.73
2023-02-14T18:20:38.484Z,37.68
2023-02-14T18:23:07.092Z,40.09
2023-02-14T18:25:33.854Z,43.16
2023-02-14T18:28:00.585Z,39.89
2023-02-14T18:30:27.418Z,38.88
2023-02-14T18:32:54.200Z,37.61
2023-02-14T18:35:20.946Z,37.30
2023-02-14T18:37:47.785Z,36.95
2023-02-14T18:40:19.997Z,36.49
2023-02-14T18:42:46.752Z,36.48
2023-02-14T18:45:13.495Z,36.42
2023-02-14T18:47:40.332Z,36.53
2023-02-14T18:50:07.138Z,36.15
2023-02-14T18:52:33.870Z,36.05
2023-02-14T18:55:00.708Z,36.25
2023-02-14T18:57:27.478Z,35.97
2023-02-14T18:59:54.454Z,37.70
2023-02-14T19:02:21.781Z,40.04
2023-02-14T19:04:48.693Z,42.88
2023-02-14T19:07:15.422Z,40.45
2023-02-14T19:09:42.993Z,38.58
2023-02-14T19:12:09.731Z,37.91
2023-02-14T19:14:36.471Z,37.48
2023-02-14T19:17:03.222Z,37.10
2023-02-14T19:19:29.980Z,36.78
2023-02-14T19:21:56.715Z,36.70
2023-02-14T19:24:25.493Z,36.77
2023-02-14T19:26:52.640Z,36.27
2023-02-14T19:29:19.966Z,36.12
2023-02-14T19:31:48.229Z,36.12
2023-02-14T19:34:15.208Z,35.90
2023-02-14T19:36:41.958Z,36.07
2023-02-14T19:39:08.794Z,39.09
2023-02-14T19:41:35.761Z,40.42
2023-02-14T19:44:02.566Z,43.08
2023-02-14T19:46:29.413Z,39.97
2023-02-14T19:48:56.153Z,38.48
2023-02-14T19:51:22.924Z,37.57
2023-02-14T19:53:49.682Z,37.30
2023-02-14T19:56:16.419Z,37.09
2023-02-14T19:58:43.200Z,36.64
2023-02-14T20:01:10.304Z,36.65
2023-02-14T20:03:37.074Z,36.47
2023-02-14T20:06:03.829Z,36.53
2023-02-14T20:08:30.665Z,36.33
2023-02-14T20:10:57.869Z,36.30
2023-02-14T20:13:24.767Z,36.21
2023-02-14T20:15:51.569Z,36.13
2023-02-14T20:18:18.346Z,35.99
2023-02-14T20:21:03.541Z,38.57
2023-02-14T20:23:30.283Z,39.68
2023-02-14T20:25:57.044Z,42.99
2023-02-14T20:28:23.803Z,40.00
2023-02-14T20:30:50.638Z,38.18
2023-02-14T20:33:17.446Z,37.99
2023-02-14T20:35:44.180Z,37.03
2023-02-14T20:38:11.717Z,37.02
2023-02-14T20:40:38.927Z,36.88
2023-02-14T20:43:05.771Z,36.76
2023-02-14T20:45:32.884Z,36.50
2023-02-14T20:48:03.182Z,36.47
2023-02-14T20:50:30.061Z,36.38
2023-02-14T20:52:56.827Z,36.29
2023-02-14T20:55:23.584Z,36.05
2023-02-14T20:57:50.335Z,35.85
2023-02-14T21:00:17.059Z,35.83
2023-02-14T21:02:43.779Z,36.27
2023-02-14T21:05:10.529Z,38.61
2023-02-14T21:07:37.322Z,39.47
2023-02-14T21:10:04.042Z,42.78
2023-02-14T21:12:30.784Z,39.98
2023-02-14T21:14:57.739Z,38.53
2023-02-14T21:17:24.594Z,37.85
2023-02-14T21:19:51.337Z,37.27
2023-02-14T21:22:18.076Z,37.14
2023-02-14T21:24:45.076Z,36.99
2023-02-14T21:27:11.833Z,36.73
2023-02-14T21:29:38.593Z,36.31
2023-02-14T21:32:05.452Z,36.36
2023-02-14T21:34:32.254Z,36.11
2023-02-14T21:36:59.025Z,36.00
2023-02-14T21:39:27.394Z,36.34
2023-02-14T21:41:54.250Z,36.10
2023-02-14T21:44:39.463Z,36.01
2023-02-14T21:47:06.230Z,38.62
2023-02-14T21:49:51.485Z,40.12
2023-02-14T21:52:18.229Z,43.38
2023-02-14T21:54:44.969Z,40.09
2023-02-14T21:57:11.711Z,38.61
2023-02-14T21:59:40.188Z,37.74
2023-02-14T22:02:06.926Z,37.24
2023-02-14T22:04:35.322Z,36.98
2023-02-14T22:07:02.161Z,36.85
2023-02-14T22:09:28.903Z,36.80
2023-02-14T22:11:55.648Z,36.57
2023-02-14T22:14:22.406Z,36.38
2023-02-14T22:16:49.339Z,36.09
2023-02-14T22:19:16.148Z,36.19
2023-02-14T22:21:42.950Z,35.99
2023-02-14T22:24:09.772Z,35.79
2023-02-14T22:26:40.732Z,36.03
2023-02-14T22:29:07.508Z,36.80
2023-02-14T22:31:34.340Z,39.14
2023-02-14T22:34:01.167Z,41.23
2023-02-14T22:36:27.991Z,41.90
2023-02-14T22:38:54.727Z,39.52
2023-02-14T22:41:21.498Z,38.05
2023-02-14T22:43:48.254Z,37.38
2023-02-14T22:46:15.101Z,37.04
2023-02-14T22:48:41.950Z,36.89
2023-02-14T22:51:08.732Z,36.73
2023-02-14T22:53:35.728Z,36.42
2023-02-14T22:56:02.803Z,36.24
2023-02-14T22:58:29.698Z,36.13
2023-02-14T23:00:56.441Z,35.96
2023-02-14T23:03:23.176Z,36.10
2023-02-14T23:05:49.938Z,36.13
2023-02-14T23:08:16.953Z,36.29
2023-02-14T23:10:43.774Z,35.88
2023-02-14T23:13:29.556Z,37.30
2023-02-14T23:16:14.782Z,39.74
2023-02-14T23:19:00.248Z,43.17
2023-02-14T23:21:45.522Z,39.90
2023-02-14T23:24:12.278Z,38.36
2023-02-14T23:26:39.013Z,37.69
2023-02-14T23:29:05.808Z,37.01
2023-02-14T23:31:32.609Z,36.73
2023-02-14T23:33:59.420Z,36.47
2023-02-14T23:36:26.179Z,36.56
2023-02-14T23:38:52.942Z,36.22
2023-02-14T23:41:38.308Z,36.49
2023-02-14T23:44:05.081Z,36.11
2023-02-14T23:46:31.923Z,36.07
2023-02-14T23:48:58.666Z,35.63
2023-02-14T23:51:25.432Z,35.81
2023-02-14T23:53:52.207Z,36.01
2023-02-14T23:56:18.967Z,35.89
2023-02-14T23:58:45.733Z,35.70
